createdAt,value
2022-12-15T00:00:41.625Z,-4.30
2022-12-15T00:07:21.225Z,-4.10
2022-12-15T00:10:35.675Z,-4.00
2022-12-15T00:13:57.298Z,-3.90
2022-12-15T00:17:11.339Z,-4.00
2022-12-15T00:20:30.012Z,-4.20
2022-12-15T00:23:45.847Z,-4.20
2022-12-15T00:27:03.427Z,-4.10
2022-12-15T00:30:17.732Z,-3.90
2022-12-15T00:33:32.313Z,-4.00
2022-12-15T00:36:46.758Z,-4.20
2022-12-15T00:39:43.231Z,-4.20
2022-12-15T00:48:46.690Z,-4.20
2022-12-15T00:51:12.250Z,-4.20
2022-12-15T00:54:50.062Z,-4.20
2022-12-15T01:02:12.888Z,-4.10
2022-12-15T01:05:34.689Z,-4.00
2022-12-15T01:08:57.982Z,-4.00
2022-12-15T01:12:15.040Z,-4.00
2022-12-15T01:15:36.470Z,-4.20
2022-12-15T01:18:57.877Z,-4.10
2022-12-15T01:25:02.457Z,-4.00
2022-12-15T01:28:05.240Z,-3.80
2022-12-15T01:30:59.043Z,-3.70
2022-12-15T01:34:04.293Z,-3.60
2022-12-15T01:36:58.414Z,-3.50
2022-12-15T01:40:16.395Z,-3.90
2022-12-15T01:43:13.639Z,-4.00
2022-12-15T01:49:35.994Z,-3.90
2022-12-15T01:52:47.178Z,-3.80
2022-12-15T01:55:45.874Z,-3.80
2022-12-15T01:59:02.428Z,-3.80
2022-12-15T02:01:57.515Z,-3.70
2022-12-15T02:05:01.122Z,-3.80
2022-12-15T02:07:55.469Z,-3.80
2022-12-15T02:14:54.900Z,-3.80
2022-12-15T02:18:18.024Z,-3.90
2022-12-15T02:21:38.390Z,-4.10
2022-12-15T02:28:38.758Z,-4.10
2022-12-15T02:32:19.622Z,-4.10
2022-12-15T02:35:55.389Z,-4.20
2022-12-15T02:38:58.475Z,-4.10
2022-12-15T02:41:55.353Z,-4.10
2022-12-15T02:45:23.353Z,-4.20
2022-12-15T02:49:12.756Z,-4.30
2022-12-15T02:52:26.739Z,-4.20
2022-12-15T02:55:57.393Z,-4.10
2022-12-15T02:59:25.121Z,-4.40
2022-12-15T03:02:17.064Z,-4.70
2022-12-15T03:05:12.098Z,-4.90
2022-12-15T03:08:10.915Z,-5.00
2022-12-15T03:11:12.031Z,-4.90
2022-12-15T03:14:14.268Z,-5.00
2022-12-15T03:17:21.300Z,-5.00
2022-12-15T03:20:28.058Z,-5.00
2022-12-15T03:26:54.382Z,-4.90
2022-12-15T03:29:48.326Z,-4.90
2022-12-15T03:32:41.608Z,-4.90
2022-12-15T03:35:47.619Z,-4.90
2022-12-15T03:38:41.062Z,-5.10
2022-12-15T03:44:55.716Z,-5.30
2022-12-15T03:48:00.379Z,-5.40
2022-12-15T03:51:11.538Z,-5.40
2022-12-15T03:54:14.531Z,-5.50
2022-12-15T03:57:08.111Z,-5.50
2022-12-15T04:00:13.595Z,-5.30
2022-12-15T04:03:04.589Z,-5.40
2022-12-15T04:05:52.950Z,-5.60
2022-12-15T04:08:41.119Z,-5.70
2022-12-15T04:11:35.437Z,-5.60
2022-12-15T04:14:23.575Z,-5.60
2022-12-15T04:17:13.226Z,-5.50
2022-12-15T04:20:13.112Z,-5.40
2022-12-15T04:23:05.518Z,-5.40
2022-12-15T04:26:14.894Z,-5.50
2022-12-15T04:29:28.700Z,-5.50
2022-12-15T04:32:42.452Z,-5.40
2022-12-15T04:35:55.827Z,-5.30
2022-12-15T04:39:08.009Z,-5.20
2022-12-15T04:42:22.792Z,-5.00
2022-12-15T04:45:39.473Z,-4.90
2022-12-15T04:48:46.405Z,-4.90
2022-12-15T04:52:05.191Z,-4.70
2022-12-15T04:55:14.861Z,-4.70
2022-12-15T04:58:35.918Z,-4.30
2022-12-15T05:01:42.641Z,-4.10
2022-12-15T05:04:49.663Z,-4.00
2022-12-15T05:08:00.848Z,-4.00
2022-12-15T05:11:12.765Z,-3.80
2022-12-15T05:14:25.402Z,-3.70
2022-12-15T05:17:41.663Z,-3.60
2022-12-15T05:21:07.687Z,-3.50
2022-12-15T05:24:18.258Z,-3.60
2022-12-15T05:27:30.339Z,-3.50
2022-12-15T05:30:37.477Z,-3.50
2022-12-15T05:33:30.469Z,-3.50
2022-12-15T05:36:31.021Z,-3.40
2022-12-15T05:39:32.990Z,-3.30
2022-12-15T05:42:21.852Z,-3.20
2022-12-15T05:45:29.373Z,-3.20
2022-12-15T05:48:20.891Z,-3.20
2022-12-15T05:51:32.084Z,-3.20
2022-12-15T05:54:36.390Z,-3.10
2022-12-15T05:57:35.606Z,-3.10
2022-12-15T06:03:45.063Z,-3.10
2022-12-15T06:07:14.037Z,-3.30
2022-12-15T06:10:20.519Z,-3.20
2022-12-15T06:13:35.316Z,-3.00
2022-12-15T06:19:34.035Z,-2.80
2022-12-15T06:22:28.170Z,-2.90
2022-12-15T06:25:29.273Z,-2.70
2022-12-15T06:28:46.870Z,-2.60
2022-12-15T06:35:01.827Z,-3.10
2022-12-15T06:38:09.356Z,-3.00
2022-12-15T06:41:43.581Z,-3.10
2022-12-15T06:44:31.760Z,-3.20
2022-12-15T06:47:24.715Z,-3.20
2022-12-15T06:50:12.806Z,-3.10
2022-12-15T06:53:06.228Z,-3.20
2022-12-15T06:55:59.976Z,-3.30
2022-12-15T06:58:51.747Z,-3.30
2022-12-15T07:04:22.937Z,-3.10
2022-12-15T07:07:14.494Z,-2.80
2022-12-15T07:10:04.105Z,-2.70
2022-12-15T07:15:46.984Z,-2.90
2022-12-15T07:18:35.981Z,-3.00
2022-12-15T07:21:26.879Z,-3.00
2022-12-15T07:24:15.974Z,-3.00
2022-12-15T07:27:06.863Z,-2.90
2022-12-15T07:29:55.194Z,-2.90
2022-12-15T07:32:50.625Z,-3.10
2022-12-15T07:35:48.851Z,-3.00
2022-12-15T07:38:37.355Z,-2.70
2022-12-15T07:41:28.188Z,-2.70
2022-12-15T07:44:19.193Z,-2.60
2022-12-15T07:47:13.000Z,-2.80
2022-12-15T07:50:08.633Z,-2.80
2022-12-15T07:54:04.484Z,-2.90
2022-12-15T07:56:26.346Z,-2.90
2022-12-15T07:59:17.331Z,-2.80
2022-12-15T08:02:11.296Z,-2.60
2022-12-15T08:05:05.365Z,-2.50
2022-12-15T08:08:09.623Z,-2.50
2022-12-15T08:11:12.599Z,-2.60
2022-12-15T08:14:03.168Z,-2.60
2022-12-15T08:16:52.886Z,-2.70
2022-12-15T08:19:43.759Z,-2.90
2022-12-15T08:22:32.227Z,-2.70
2022-12-15T08:25:37.267Z,-2.80
2022-12-15T08:28:25.495Z,-2.80
2022-12-15T08:31:19.149Z,-2.80
2022-12-15T08:34:12.798Z,-2.60
2022-12-15T08:37:03.741Z,-2.60
2022-12-15T08:40:04.725Z,-2.60
2022-12-15T08:42:53.373Z,-2.40
2022-12-15T08:45:49.427Z,-2.40
2022-12-15T08:48:41.455Z,-2.50
2022-12-15T08:51:32.282Z,-2.70
2022-12-15T08:54:25.420Z,-2.60
2022-12-15T08:57:16.786Z,-2.40
2022-12-15T09:00:06.208Z,-2.40
2022-12-15T09:03:17.672Z,-2.60
2022-12-15T09:06:11.856Z,-2.30
2022-12-15T09:09:32.795Z,-2.30
2022-12-15T09:12:24.490Z,-2.20
2022-12-15T09:15:16.861Z,-2.50
2022-12-15T09:18:08.968Z,-2.40
2022-12-15T09:21:06.401Z,-2.30
2022-12-15T09:24:03.173Z,-2.30
2022-12-15T09:27:10.519Z,-2.40
2022-12-15T09:30:20.837Z,-2.50
2022-12-15T09:33:12.211Z,-2.80
2022-12-15T09:36:21.448Z,-2.80
2022-12-15T09:39:30.450Z,-2.40
2022-12-15T09:47:03.989Z,-1.90
2022-12-15T09:50:32.726Z,-1.70
2022-12-15T09:54:15.294Z,-1.50
2022-12-15T09:57:48.732Z,-1.70
2022-12-15T10:02:13.196Z,-1.50
2022-12-15T10:09:37.413Z,-1.60
2022-12-15T10:12:41.969Z,-1.50
2022-12-15T10:20:00.065Z,-1.50
2022-12-15T10:23:17.980Z,-1.40
2022-12-15T10:26:27.549Z,-1.20
2022-12-15T10:30:01.876Z,-1.40
2022-12-15T10:34:46.864Z,-1.60
2022-12-15T10:36:23.751Z,-1.50
2022-12-15T10:39:28.805Z,-1.40
2022-12-15T10:42:31.286Z,-1.20
2022-12-15T10:49:17.880Z,-1.10
2022-12-15T10:52:14.513Z,-1.70
2022-12-15T10:55:41.425Z,-1.50
2022-12-15T10:58:39.800Z,-1.40
2022-12-15T11:01:46.265Z,-1.70
2022-12-15T11:04:58.113Z,-1.70
2022-12-15T11:08:12.313Z,-2.20
2022-12-15T11:11:25.959Z,-2.20
2022-12-15T11:14:38.320Z,-2.50
2022-12-15T11:17:39.837Z,-2.80
2022-12-15T11:26:41.003Z,-1.80
2022-12-15T11:30:29.559Z,-1.60
2022-12-15T11:33:19.864Z,-1.40
2022-12-15T11:36:28.843Z,-1.10
2022-12-15T11:39:30.884Z,-1.00
2022-12-15T11:42:52.974Z,-1.10
2022-12-15T11:46:13.858Z,-1.20
2022-12-15T11:49:29.431Z,-1.00
2022-12-15T11:53:12.446Z,-1.10
2022-12-15T11:56:31.047Z,-1.10
2022-12-15T11:59:50.025Z,-1.10
2022-12-15T12:03:24.874Z,-1.00
2022-12-15T12:06:35.835Z,-0.70
2022-12-15T12:10:01.525Z,-1.00
2022-12-15T12:13:45.812Z,-1.10
2022-12-15T12:17:06.578Z,-1.00
2022-12-15T12:20:40.644Z,-1.10
2022-12-15T12:24:18.373Z,-1.20
2022-12-15T12:27:59.084Z,-0.90
2022-12-15T12:37:40.283Z,-0.70
2022-12-15T12:40:52.648Z,-1.00
2022-12-15T12:43:58.885Z,-0.90
2022-12-15T12:46:59.336Z,-0.80
2022-12-15T12:57:55.604Z,-1.10
2022-12-15T13:01:44.960Z,-0.90
2022-12-15T13:05:21.524Z,-0.70
2022-12-15T13:12:27.575Z,-0.30
2022-12-15T13:15:37.218Z,-0.60
2022-12-15T13:18:42.222Z,-0.30
2022-12-15T13:21:42.663Z,0.30
2022-12-15T13:24:39.574Z,0.30
2022-12-15T13:28:05.329Z,0.70
2022-12-15T13:31:53.065Z,1.20
2022-12-15T13:35:01.869Z,1.70
2022-12-15T13:38:19.607Z,2.10
2022-12-15T13:42:23.678Z,2.00
2022-12-15T13:45:28.674Z,1.20
2022-12-15T13:54:28.393Z,-0.70
2022-12-15T13:57:51.826Z,-0.20
2022-12-15T14:00:59.153Z,-0.40
2022-12-15T14:04:17.159Z,-0.20
2022-12-15T14:07:10.615Z,-0.60
2022-12-15T14:10:05.086Z,-0.90
2022-12-15T14:13:15.510Z,-0.60
2022-12-15T14:16:19.090Z,-0.40
2022-12-15T14:19:26.568Z,-0.60
2022-12-15T14:22:36.034Z,-1.10
2022-12-15T14:25:33.671Z,-1.40
2022-12-15T14:28:41.180Z,-1.80
2022-12-15T14:31:37.707Z,-2.30
2022-12-15T14:35:00.222Z,-2.50
2022-12-15T14:37:48.656Z,-2.60
2022-12-15T14:40:40.067Z,-2.60
2022-12-15T14:43:37.257Z,-2.80
2022-12-15T14:46:27.814Z,-2.80
2022-12-15T14:49:37.346Z,-2.80
2022-12-15T14:52:41.683Z,-2.90
2022-12-15T14:55:39.627Z,-3.00
2022-12-15T14:58:38.639Z,-3.10
2022-12-15T15:01:45.423Z,-3.10
2022-12-15T15:04:41.648Z,-3.00
2022-12-15T15:07:36.149Z,-3.10
2022-12-15T15:10:39.788Z,-3.10
2022-12-15T15:13:41.616Z,-3.20
2022-12-15T15:16:53.231Z,-3.20
2022-12-15T15:20:26.948Z,-3.30
2022-12-15T15:26:03.313Z,-3.30
2022-12-15T15:29:34.232Z,-3.40
2022-12-15T15:32:25.847Z,-3.50
2022-12-15T15:35:21.859Z,-3.50
2022-12-15T15:38:38.845Z,-3.40
2022-12-15T15:41:46.187Z,-3.50
2022-12-15T15:44:34.327Z,-3.40
2022-12-15T15:47:30.678Z,-3.40
2022-12-15T15:50:27.239Z,-3.40
2022-12-15T15:53:23.366Z,-3.60
2022-12-15T15:56:32.253Z,-3.60
2022-12-15T15:59:33.210Z,-3.70
2022-12-15T16:02:38.894Z,-3.70
2022-12-15T16:05:35.739Z,-3.70
2022-12-15T16:08:35.249Z,-3.70
2022-12-15T16:11:55.612Z,-3.80
2022-12-15T16:14:58.678Z,-3.70
2022-12-15T16:18:27.581Z,-3.80
2022-12-15T16:21:26.520Z,-3.80
2022-12-15T16:24:40.943Z,-3.90
2022-12-15T16:27:29.600Z,-3.80
2022-12-15T16:30:50.707Z,-3.70
2022-12-15T16:33:52.104Z,-3.90
2022-12-15T16:36:45.641Z,-4.00
2022-12-15T16:39:44.431Z,-4.10
2022-12-15T16:42:35.180Z,-4.20
2022-12-15T16:45:28.820Z,-4.20
2022-12-15T16:48:22.232Z,-4.10
2022-12-15T16:51:34.952Z,-4.20
2022-12-15T16:54:36.436Z,-4.20
2022-12-15T16:57:44.625Z,-4.20
2022-12-15T17:00:35.732Z,-4.20
2022-12-15T17:03:30.697Z,-4.10
2022-12-15T17:06:29.555Z,-4.20
2022-12-15T17:09:24.208Z,-4.30
2022-12-15T17:12:18.289Z,-4.30
2022-12-15T17:15:25.441Z,-4.40
2022-12-15T17:18:15.015Z,-4.40
2022-12-15T17:21:12.637Z,-4.50
2022-12-15T17:24:08.305Z,-4.50
2022-12-15T17:26:56.438Z,-4.30
2022-12-15T17:29:44.770Z,-4.30
2022-12-15T17:32:32.628Z,-4.30
2022-12-15T17:35:21.536Z,-4.20
2022-12-15T17:38:18.347Z,-4.40
2022-12-15T17:41:15.519Z,-4.40
2022-12-15T17:44:36.263Z,-4.50
2022-12-15T17:47:25.581Z,-4.60
2022-12-15T17:50:23.370Z,-4.70
2022-12-15T17:53:13.781Z,-4.50
2022-12-15T17:56:04.656Z,-4.60
2022-12-15T17:58:58.151Z,-4.70
2022-12-15T18:02:00.293Z,-4.80
2022-12-15T18:05:00.211Z,-4.70
2022-12-15T18:07:58.381Z,-4.70
2022-12-15T18:10:49.292Z,-4.70
2022-12-15T18:13:49.283Z,-4.80
2022-12-15T18:16:39.533Z,-4.80
2022-12-15T18:19:35.134Z,-4.80
2022-12-15T18:22:27.851Z,-4.70
2022-12-15T18:25:31.611Z,-4.80
2022-12-15T18:28:37.583Z,-4.70
2022-12-15T18:31:30.451Z,-4.80
2022-12-15T18:34:24.162Z,-4.80
2022-12-15T18:37:32.303Z,-4.80
2022-12-15T18:40:25.315Z,-4.70
2022-12-15T18:43:22.684Z,-4.70
2022-12-15T18:46:16.320Z,-4.80
2022-12-15T18:49:12.243Z,-4.80
2022-12-15T18:52:00.116Z,-5.00
2022-12-15T18:54:49.904Z,-5.00
2022-12-15T18:57:38.022Z,-5.10
2022-12-15T19:00:28.779Z,-5.20
2022-12-15T19:03:20.116Z,-5.20
2022-12-15T19:06:26.065Z,-5.10
2022-12-15T19:09:23.268Z,-5.20
2022-12-15T19:12:18.286Z,-5.00
2022-12-15T19:15:21.261Z,-5.10
2022-12-15T19:18:34.489Z,-4.90
2022-12-15T19:21:44.393Z,-5.00
2022-12-15T19:24:51.229Z,-5.00
2022-12-15T19:27:39.235Z,-5.10
2022-12-15T19:30:38.620Z,-5.00
2022-12-15T19:33:30.060Z,-5.10
2022-12-15T19:36:23.683Z,-5.10
2022-12-15T19:39:22.471Z,-5.20
2022-12-15T19:42:30.003Z,-5.20
2022-12-15T19:45:23.457Z,-5.10
2022-12-15T19:48:18.698Z,-5.00
2022-12-15T19:51:19.821Z,-5.00
2022-12-15T19:54:17.766Z,-5.10
2022-12-15T20:01:45.550Z,-5.20
2022-12-15T20:04:34.449Z,-5.30
2022-12-15T20:07:32.221Z,-5.40
2022-12-15T20:10:32.514Z,-5.30
2022-12-15T20:13:29.730Z,-5.20
2022-12-15T20:16:19.617Z,-5.20
2022-12-15T20:19:12.154Z,-5.20
2022-12-15T20:22:17.135Z,-5.20
2022-12-15T20:25:09.040Z,-5.10
2022-12-15T20:28:00.824Z,-5.20
2022-12-15T20:30:50.644Z,-5.40
2022-12-15T20:33:39.261Z,-5.30
2022-12-15T20:36:50.497Z,-5.40
2022-12-15T20:39:40.278Z,-5.40
2022-12-15T20:42:45.337Z,-5.30
2022-12-15T20:45:57.849Z,-5.20
2022-12-15T20:48:48.762Z,-4.90
2022-12-15T20:51:39.710Z,-4.90
2022-12-15T20:54:36.899Z,-4.90
2022-12-15T20:57:25.764Z,-5.00
2022-12-15T21:03:50.439Z,-4.90
2022-12-15T21:06:54.627Z,-5.00
2022-12-15T21:10:10.528Z,-5.00
2022-12-15T21:13:10.459Z,-4.90
2022-12-15T21:15:58.564Z,-4.80
2022-12-15T21:19:22.296Z,-4.90
2022-12-15T21:22:36.033Z,-5.00
2022-12-15T21:25:38.002Z,-5.00
2022-12-15T21:32:58.023Z,-4.90
2022-12-15T21:35:52.034Z,-4.90
2022-12-15T21:38:56.633Z,-4.90
2022-12-15T21:41:51.196Z,-4.70
2022-12-15T21:44:39.936Z,-4.70
2022-12-15T21:47:52.280Z,-4.50
2022-12-15T21:50:47.788Z,-4.50
2022-12-15T21:53:35.943Z,-4.70
2022-12-15T21:56:38.804Z,-4.50
2022-12-15T21:59:33.542Z,-4.30
2022-12-15T22:02:27.841Z,-4.20
2022-12-15T22:05:33.363Z,-4.20
2022-12-15T22:08:57.064Z,-4.10
2022-12-15T22:11:57.122Z,-4.20
2022-12-15T22:14:48.446Z,-4.10
2022-12-15T22:18:28.151Z,-4.10
2022-12-15T22:25:02.682Z,-4.20
2022-12-15T22:28:00.870Z,-4.10
2022-12-15T22:30:58.453Z,-4.20
2022-12-15T22:33:46.747Z,-4.40
2022-12-15T22:36:36.013Z,-4.40
2022-12-15T22:39:25.314Z,-4.40
2022-12-15T22:42:19.772Z,-4.40
2022-12-15T22:45:20.748Z,-4.40
2022-12-15T22:48:19.710Z,-4.30
2022-12-15T22:51:08.466Z,-4.30
2022-12-15T22:53:58.098Z,-4.40
2022-12-15T22:57:10.754Z,-4.40
2022-12-15T23:00:23.258Z,-4.40
2022-12-15T23:03:14.353Z,-4.30
2022-12-15T23:06:03.585Z,-4.40
2022-12-15T23:08:55.926Z,-4.30
2022-12-15T23:11:44.778Z,-4.30
2022-12-15T23:14:51.146Z,-4.40
2022-12-15T23:17:40.099Z,-4.50
2022-12-15T23:20:28.617Z,-4.40
2022-12-15T23:23:17.527Z,-4.30
2022-12-15T23:26:08.410Z,-4.20
2022-12-15T23:28:56.635Z,-4.40
2022-12-15T23:31:50.599Z,-4.30
2022-12-15T23:34:45.856Z,-4.40
2022-12-15T23:37:35.414Z,-4.70
2022-12-15T23:40:23.416Z,-4.60
2022-12-15T23:43:17.506Z,-4.60
2022-12-15T23:46:13.256Z,-4.50
2022-12-15T23:49:02.102Z,-4.50
2022-12-15T23:52:01.324Z,-4.60
2022-12-15T23:54:55.331Z,-4.80
2022-12-15T23:57:48.092Z,-4.60
